sensor_id;sensor_type;location;lat;lon;timestamp;P1;durP1;ratioP1;P2;durP2;ratioP2
1048;SDS011;513;51.444;7.196;2022-07-29T00:01:20;19.70;;;10.47;;
1048;SDS011;513;51.444;7.196;2022-07-29T00:03:47;32.37;;;18.20;;
1048;SDS011;513;51.444;7.196;2022-07-29T00:06:14;38.77;;;22.63;;
1048;SDS011;513;51.444;7.196;2022-07-29T00:08:41;48.87;;;30.33;;
1048;SDS011;513;51.444;7.196;2022-07-29T00:11:08;53.20;;;35.33;;
1048;SDS011;513;51.444;7.196;2022-07-29T00:13:34;65.77;;;37.37;;
1048;SDS011;513;51.444;7.196;2022-07-29T00:16:02;50.43;;;34.00;;
1048;SDS011;513;51.444;7.196;2022-07-29T00:18:29;47.70;;;30.93;;
1048;SDS011;513;51.444;7.196;2022-07-29T00:20:56;43.40;;;25.50;;
1048;SDS011;513;51.444;7.196;2022-07-29T00:23:23;41.07;;;25.97;;
1048;SDS011;513;51.444;7.196;2022-07-29T00:25:50;36.20;;;22.00;;
1048;SDS011;513;51.444;7.196;2022-07-29T00:28:17;39.23;;;21.13;;
1048;SDS011;513;51.444;7.196;2022-07-29T00:30:43;35.60;;;22.47;;
1048;SDS011;513;51.444;7.196;2022-07-29T00:33:11;32.83;;;20.60;;
1048;SDS011;513;51.444;7.196;2022-07-29T00:35:38;28.37;;;16.27;;
1048;SDS011;513;51.444;7.196;2022-07-29T00:38:10;30.53;;;17.30;;
1048;SDS011;513;51.444;7.196;2022-07-29T00:40:37;26.40;;;14.97;;
1048;SDS011;513;51.444;7.196;2022-07-29T00:43:03;20.37;;;11.93;;
1048;SDS011;513;51.444;7.196;2022-07-29T00:45:30;17.67;;;10.53;;
1048;SDS011;513;51.444;7.196;2022-07-29T00:47:57;14.60;;;9.70;;
1048;SDS011;513;51.444;7.196;2022-07-29T00:50:25;11.27;;;8.10;;
1048;SDS011;513;51.444;7.196;2022-07-29T00:52:52;8.77;;;5.60;;
1048;SDS011;513;51.444;7.196;2022-07-29T00:55:20;8.10;;;3.87;;
1048;SDS011;513;51.444;7.196;2022-07-29T00:57:47;18.00;;;3.80;;
1048;SDS011;513;51.444;7.196;2022-07-29T01:00:15;4.77;;;2.87;;
1048;SDS011;513;51.444;7.196;2022-07-29T01:02:43;4.87;;;2.00;;
1048;SDS011;513;51.444;7.196;2022-07-29T01:05:12;4.47;;;2.30;;
1048;SDS011;513;51.444;7.196;2022-07-29T01:07:40;7.60;;;2.13;;
1048;SDS011;513;51.444;7.196;2022-07-29T01:10:09;4.37;;;1.83;;
1048;SDS011;513;51.444;7.196;2022-07-29T01:12:38;4.00;;;1.97;;
1048;SDS011;513;51.444;7.196;2022-07-29T01:15:06;3.10;;;1.40;;
1048;SDS011;513;51.444;7.196;2022-07-29T01:17:36;8.17;;;1.90;;
1048;SDS011;513;51.444;7.196;2022-07-29T01:20:11;6.27;;;1.80;;
1048;SDS011;513;51.444;7.196;2022-07-29T01:22:57;5.03;;;1.80;;
1048;SDS011;513;51.444;7.196;2022-07-29T01:25:45;3.70;;;1.50;;
1048;SDS011;513;51.444;7.196;2022-07-29T01:31:28;5.37;;;1.90;;
1048;SDS011;513;51.444;7.196;2022-07-29T01:34:01;4.27;;;1.60;;
1048;SDS011;513;51.444;7.196;2022-07-29T01:36:35;5.63;;;1.90;;
1048;SDS011;513;51.444;7.196;2022-07-29T01:39:05;6.87;;;1.77;;
1048;SDS011;513;51.444;7.196;2022-07-29T01:41:34;3.97;;;1.60;;
1048;SDS011;513;51.444;7.196;2022-07-29T01:44:10;2.83;;;1.97;;
1048;SDS011;513;51.444;7.196;2022-07-29T01:46:41;4.03;;;1.67;;
1048;SDS011;513;51.444;7.196;2022-07-29T01:49:16;4.07;;;1.73;;
1048;SDS011;513;51.444;7.196;2022-07-29T01:51:47;2.43;;;1.60;;
1048;SDS011;513;51.444;7.196;2022-07-29T01:54:18;3.67;;;1.90;;
1048;SDS011;513;51.444;7.196;2022-07-29T01:56:51;2.13;;;1.47;;
1048;SDS011;513;51.444;7.196;2022-07-29T01:59:22;3.97;;;1.67;;
1048;SDS011;513;51.444;7.196;2022-07-29T02:01:50;3.73;;;1.50;;
1048;SDS011;513;51.444;7.196;2022-07-29T02:04:20;5.20;;;1.57;;
1048;SDS011;513;51.444;7.196;2022-07-29T02:06:47;5.30;;;1.60;;
1048;SDS011;513;51.444;7.196;2022-07-29T02:09:16;5.97;;;1.90;;
1048;SDS011;513;51.444;7.196;2022-07-29T02:11:47;5.23;;;1.70;;
1048;SDS011;513;51.444;7.196;2022-07-29T02:14:17;4.27;;;1.80;;
1048;SDS011;513;51.444;7.196;2022-07-29T02:16:46;14.47;;;1.67;;
1048;SDS011;513;51.444;7.196;2022-07-29T02:19:14;2.97;;;1.60;;
1048;SDS011;513;51.444;7.196;2022-07-29T02:21:44;2.37;;;1.43;;
1048;SDS011;513;51.444;7.196;2022-07-29T02:24:12;5.47;;;1.67;;
1048;SDS011;513;51.444;7.196;2022-07-29T02:26:40;4.90;;;1.50;;
1048;SDS011;513;51.444;7.196;2022-07-29T02:29:09;5.83;;;1.80;;
1048;SDS011;513;51.444;7.196;2022-07-29T02:31:36;3.43;;;1.70;;
1048;SDS011;513;51.444;7.196;2022-07-29T02:34:07;4.67;;;1.40;;
1048;SDS011;513;51.444;7.196;2022-07-29T02:36:35;2.43;;;1.77;;
1048;SDS011;513;51.444;7.196;2022-07-29T02:39:03;3.00;;;1.37;;
1048;SDS011;513;51.444;7.196;2022-07-29T02:41:35;6.67;;;1.73;;
1048;SDS011;513;51.444;7.196;2022-07-29T02:44:08;4.43;;;1.63;;
1048;SDS011;513;51.444;7.196;2022-07-29T02:46:37;3.27;;;1.53;;
1048;SDS011;513;51.444;7.196;2022-07-29T02:49:13;5.53;;;1.70;;
1048;SDS011;513;51.444;7.196;2022-07-29T02:51:43;3.00;;;1.60;;
1048;SDS011;513;51.444;7.196;2022-07-29T02:54:19;4.20;;;2.07;;
1048;SDS011;513;51.444;7.196;2022-07-29T02:56:49;1.70;;;1.50;;
1048;SDS011;513;51.444;7.196;2022-07-29T02:59:22;3.20;;;1.80;;
1048;SDS011;513;51.444;7.196;2022-07-29T03:01:52;4.23;;;1.70;;
1048;SDS011;513;51.444;7.196;2022-07-29T03:04:22;3.63;;;1.53;;
1048;SDS011;513;51.444;7.196;2022-07-29T03:06:51;4.53;;;2.00;;
1048;SDS011;513;51.444;7.196;2022-07-29T03:09:19;3.77;;;1.60;;
1048;SDS011;513;51.444;7.196;2022-07-29T03:11:47;3.80;;;1.80;;
1048;SDS011;513;51.444;7.196;2022-07-29T03:14:15;2.47;;;1.60;;
1048;SDS011;513;51.444;7.196;2022-07-29T03:16:43;4.37;;;1.70;;
1048;SDS011;513;51.444;7.196;2022-07-29T03:19:10;5.10;;;1.87;;
1048;SDS011;513;51.444;7.196;2022-07-29T03:21:39;9.90;;;1.80;;
1048;SDS011;513;51.444;7.196;2022-07-29T03:24:06;5.47;;;1.97;;
1048;SDS011;513;51.444;7.196;2022-07-29T03:26:32;8.37;;;2.00;;
1048;SDS011;513;51.444;7.196;2022-07-29T03:28:59;4.97;;;2.00;;
1048;SDS011;513;51.444;7.196;2022-07-29T03:31:26;7.47;;;1.80;;
1048;SDS011;513;51.444;7.196;2022-07-29T03:33:52;3.77;;;2.17;;
1048;SDS011;513;51.444;7.196;2022-07-29T03:36:19;2.17;;;1.60;;
1048;SDS011;513;51.444;7.196;2022-07-29T03:38:47;3.47;;;1.93;;
1048;SDS011;513;51.444;7.196;2022-07-29T03:41:15;5.37;;;1.80;;
1048;SDS011;513;51.444;7.196;2022-07-29T03:43:44;6.00;;;3.03;;
1048;SDS011;513;51.444;7.196;2022-07-29T03:46:13;4.27;;;2.27;;
1048;SDS011;513;51.444;7.196;2022-07-29T03:48:44;4.83;;;1.93;;
1048;SDS011;513;51.444;7.196;2022-07-29T03:51:14;5.00;;;1.60;;
1048;SDS011;513;51.444;7.196;2022-07-29T03:53:41;6.63;;;1.83;;
1048;SDS011;513;51.444;7.196;2022-07-29T03:56:09;5.97;;;1.80;;
1048;SDS011;513;51.444;7.196;2022-07-29T03:58:37;4.37;;;2.13;;
1048;SDS011;513;51.444;7.196;2022-07-29T04:01:05;10.37;;;4.00;;
1048;SDS011;513;51.444;7.196;2022-07-29T04:03:31;8.60;;;1.90;;
1048;SDS011;513;51.444;7.196;2022-07-29T04:06:00;4.97;;;1.80;;
1048;SDS011;513;51.444;7.196;2022-07-29T04:08:27;5.10;;;1.37;;
1048;SDS011;513;51.444;7.196;2022-07-29T04:10:54;2.47;;;1.60;;
1048;SDS011;513;51.444;7.196;2022-07-29T04:13:22;5.50;;;1.63;;
1048;SDS011;513;51.444;7.196;2022-07-29T04:15:49;4.33;;;1.80;;
1048;SDS011;513;51.444;7.196;2022-07-29T04:18:16;3.37;;;1.40;;
1048;SDS011;513;51.444;7.196;2022-07-29T04:20:42;6.60;;;1.60;;
1048;SDS011;513;51.444;7.196;2022-07-29T04:23:09;4.43;;;1.70;;
1048;SDS011;513;51.444;7.196;2022-07-29T04:25:39;4.33;;;1.83;;
1048;SDS011;513;51.444;7.196;2022-07-29T04:28:06;2.70;;;1.47;;
1048;SDS011;513;51.444;7.196;2022-07-29T04:30:35;3.87;;;1.73;;
1048;SDS011;513;51.444;7.196;2022-07-29T04:33:03;5.47;;;1.80;;
1048;SDS011;513;51.444;7.196;2022-07-29T04:35:33;6.10;;;1.93;;
1048;SDS011;513;51.444;7.196;2022-07-29T04:38:02;4.43;;;1.60;;
1048;SDS011;513;51.444;7.196;2022-07-29T04:40:29;4.60;;;1.50;;
1048;SDS011;513;51.444;7.196;2022-07-29T04:42:57;4.13;;;1.60;;
1048;SDS011;513;51.444;7.196;2022-07-29T04:45:24;4.93;;;1.53;;
1048;SDS011;513;51.444;7.196;2022-07-29T04:47:52;2.33;;;1.57;;
1048;SDS011;513;51.444;7.196;2022-07-29T04:50:19;7.37;;;1.60;;
1048;SDS011;513;51.444;7.196;2022-07-29T04:52:46;5.37;;;1.63;;
1048;SDS011;513;51.444;7.196;2022-07-29T04:55:13;3.97;;;1.60;;
1048;SDS011;513;51.444;7.196;2022-07-29T04:57:40;7.03;;;1.80;;
1048;SDS011;513;51.444;7.196;2022-07-29T05:00:07;3.13;;;1.80;;
1048;SDS011;513;51.444;7.196;2022-07-29T05:02:35;3.70;;;1.97;;
1048;SDS011;513;51.444;7.196;2022-07-29T05:05:03;5.70;;;1.77;;
1048;SDS011;513;51.444;7.196;2022-07-29T05:07:30;4.60;;;1.80;;
1048;SDS011;513;51.444;7.196;2022-07-29T05:09:57;5.10;;;1.90;;
1048;SDS011;513;51.444;7.196;2022-07-29T05:12:24;7.17;;;1.73;;
1048;SDS011;513;51.444;7.196;2022-07-29T05:14:51;4.67;;;1.73;;
1048;SDS011;513;51.444;7.196;2022-07-29T05:17:17;7.03;;;1.73;;
1048;SDS011;513;51.444;7.196;2022-07-29T05:19:44;6.10;;;2.83;;
1048;SDS011;513;51.444;7.196;2022-07-29T05:22:12;5.20;;;2.10;;
1048;SDS011;513;51.444;7.196;2022-07-29T05:24:39;5.23;;;2.00;;
1048;SDS011;513;51.444;7.196;2022-07-29T05:27:06;5.07;;;2.20;;
1048;SDS011;513;51.444;7.196;2022-07-29T05:29:32;2.80;;;1.63;;
1048;SDS011;513;51.444;7.196;2022-07-29T05:31:59;5.40;;;1.63;;
1048;SDS011;513;51.444;7.196;2022-07-29T05:34:26;4.50;;;1.90;;
1048;SDS011;513;51.444;7.196;2022-07-29T05:36:52;4.37;;;2.00;;
1048;SDS011;513;51.444;7.196;2022-07-29T05:39:20;4.03;;;2.00;;
1048;SDS011;513;51.444;7.196;2022-07-29T05:41:47;2.77;;;1.90;;
1048;SDS011;513;51.444;7.196;2022-07-29T05:44:14;3.60;;;2.23;;
1048;SDS011;513;51.444;7.196;2022-07-29T05:46:40;8.20;;;2.30;;
1048;SDS011;513;51.444;7.196;2022-07-29T05:49:07;3.57;;;2.40;;
1048;SDS011;513;51.444;7.196;2022-07-29T05:51:34;6.17;;;1.83;;
1048;SDS011;513;51.444;7.196;2022-07-29T05:54:01;4.70;;;2.27;;
1048;SDS011;513;51.444;7.196;2022-07-29T05:56:29;4.30;;;1.80;;
1048;SDS011;513;51.444;7.196;2022-07-29T05:58:55;3.87;;;2.30;;
1048;SDS011;513;51.444;7.196;2022-07-29T06:01:22;5.20;;;2.90;;
1048;SDS011;513;51.444;7.196;2022-07-29T06:03:49;6.63;;;1.93;;
1048;SDS011;513;51.444;7.196;2022-07-29T06:06:16;4.30;;;2.20;;
1048;SDS011;513;51.444;7.196;2022-07-29T06:08:42;4.77;;;2.13;;
1048;SDS011;513;51.444;7.196;2022-07-29T06:11:09;6.67;;;2.20;;
1048;SDS011;513;51.444;7.196;2022-07-29T06:13:37;4.77;;;2.43;;
1048;SDS011;513;51.444;7.196;2022-07-29T06:16:04;8.03;;;2.63;;
1048;SDS011;513;51.444;7.196;2022-07-29T06:18:31;3.60;;;2.20;;
1048;SDS011;513;51.444;7.196;2022-07-29T06:20:57;5.20;;;1.83;;
1048;SDS011;513;51.444;7.196;2022-07-29T06:23:24;7.17;;;2.57;;
1048;SDS011;513;51.444;7.196;2022-07-29T06:25:51;3.70;;;2.00;;
1048;SDS011;513;51.444;7.196;2022-07-29T06:28:17;3.40;;;2.07;;
1048;SDS011;513;51.444;7.196;2022-07-29T06:30:45;8.03;;;2.47;;
1048;SDS011;513;51.444;7.196;2022-07-29T06:33:15;4.47;;;2.13;;
1048;SDS011;513;51.444;7.196;2022-07-29T06:35:43;7.10;;;2.53;;
1048;SDS011;513;51.444;7.196;2022-07-29T06:38:12;4.20;;;2.63;;
1048;SDS011;513;51.444;7.196;2022-07-29T06:40:40;4.53;;;2.20;;
1048;SDS011;513;51.444;7.196;2022-07-29T06:43:25;7.20;;;2.63;;
1048;SDS011;513;51.444;7.196;2022-07-29T06:45:53;3.77;;;2.50;;
1048;SDS011;513;51.444;7.196;2022-07-29T06:48:19;11.30;;;2.50;;
1048;SDS011;513;51.444;7.196;2022-07-29T06:50:46;8.83;;;2.33;;
1048;SDS011;513;51.444;7.196;2022-07-29T06:53:13;5.20;;;2.20;;
1048;SDS011;513;51.444;7.196;2022-07-29T06:55:40;7.07;;;2.63;;
1048;SDS011;513;51.444;7.196;2022-07-29T06:58:07;5.80;;;2.53;;
1048;SDS011;513;51.444;7.196;2022-07-29T07:00:34;7.50;;;2.30;;
1048;SDS011;513;51.444;7.196;2022-07-29T07:03:02;7.53;;;2.50;;
1048;SDS011;513;51.444;7.196;2022-07-29T07:05:29;5.80;;;2.60;;
1048;SDS011;513;51.444;7.196;2022-07-29T07:07:56;9.50;;;2.90;;
1048;SDS011;513;51.444;7.196;2022-07-29T07:10:23;7.13;;;2.87;;
1048;SDS011;513;51.444;7.196;2022-07-29T07:12:49;8.93;;;2.97;;
1048;SDS011;513;51.444;7.196;2022-07-29T07:15:16;4.13;;;1.90;;
1048;SDS011;513;51.444;7.196;2022-07-29T07:17:46;3.77;;;2.60;;
1048;SDS011;513;51.444;7.196;2022-07-29T07:20:14;6.73;;;2.50;;
1048;SDS011;513;51.444;7.196;2022-07-29T07:22:41;5.33;;;2.37;;
1048;SDS011;513;51.444;7.196;2022-07-29T07:25:08;3.87;;;2.20;;
1048;SDS011;513;51.444;7.196;2022-07-29T07:27:35;6.07;;;2.10;;
1048;SDS011;513;51.444;7.196;2022-07-29T07:30:03;8.47;;;2.60;;
1048;SDS011;513;51.444;7.196;2022-07-29T07:32:31;5.70;;;2.20;;
1048;SDS011;513;51.444;7.196;2022-07-29T07:34:58;5.90;;;2.13;;
1048;SDS011;513;51.444;7.196;2022-07-29T07:37:26;8.67;;;4.43;;
1048;SDS011;513;51.444;7.196;2022-07-29T07:39:53;6.63;;;2.53;;
1048;SDS011;513;51.444;7.196;2022-07-29T07:42:20;4.37;;;2.13;;
1048;SDS011;513;51.444;7.196;2022-07-29T07:44:47;6.87;;;2.30;;
1048;SDS011;513;51.444;7.196;2022-07-29T07:47:14;6.80;;;2.10;;
1048;SDS011;513;51.444;7.196;2022-07-29T07:49:44;4.40;;;1.70;;
1048;SDS011;513;51.444;7.196;2022-07-29T07:52:11;3.40;;;2.07;;
1048;SDS011;513;51.444;7.196;2022-07-29T07:54:39;4.63;;;2.00;;
1048;SDS011;513;51.444;7.196;2022-07-29T07:57:06;4.30;;;1.97;;
1048;SDS011;513;51.444;7.196;2022-07-29T07:59:33;5.17;;;1.80;;
1048;SDS011;513;51.444;7.196;2022-07-29T08:01:59;6.23;;;2.10;;
1048;SDS011;513;51.444;7.196;2022-07-29T08:04:26;5.80;;;2.10;;
1048;SDS011;513;51.444;7.196;2022-07-29T08:06:53;4.40;;;1.90;;
1048;SDS011;513;51.444;7.196;2022-07-29T08:09:20;5.30;;;2.47;;
1048;SDS011;513;51.444;7.196;2022-07-29T08:11:48;3.47;;;2.00;;
1048;SDS011;513;51.444;7.196;2022-07-29T08:14:15;8.07;;;2.67;;
1048;SDS011;513;51.444;7.196;2022-07-29T08:16:42;4.77;;;2.10;;
1048;SDS011;513;51.444;7.196;2022-07-29T08:19:09;5.00;;;2.27;;
1048;SDS011;513;51.444;7.196;2022-07-29T08:21:36;7.20;;;2.10;;
1048;SDS011;513;51.444;7.196;2022-07-29T08:24:03;9.80;;;3.53;;
1048;SDS011;513;51.444;7.196;2022-07-29T08:26:49;4.97;;;2.60;;
1048;SDS011;513;51.444;7.196;2022-07-29T08:29:16;3.70;;;2.30;;
1048;SDS011;513;51.444;7.196;2022-07-29T08:31:43;5.33;;;2.40;;
1048;SDS011;513;51.444;7.196;2022-07-29T08:34:10;6.67;;;2.43;;
1048;SDS011;513;51.444;7.196;2022-07-29T08:36:37;4.50;;;2.30;;
1048;SDS011;513;51.444;7.196;2022-07-29T08:39:04;7.40;;;2.43;;
1048;SDS011;513;51.444;7.196;2022-07-29T08:41:31;9.57;;;2.50;;
1048;SDS011;513;51.444;7.196;2022-07-29T08:43:59;6.17;;;2.50;;
1048;SDS011;513;51.444;7.196;2022-07-29T08:46:26;6.77;;;2.20;;
1048;SDS011;513;51.444;7.196;2022-07-29T08:48:52;5.57;;;2.60;;
1048;SDS011;513;51.444;7.196;2022-07-29T08:51:20;7.83;;;2.80;;
1048;SDS011;513;51.444;7.196;2022-07-29T08:53:48;8.17;;;2.40;;
1048;SDS011;513;51.444;7.196;2022-07-29T08:56:16;6.27;;;2.27;;
1048;SDS011;513;51.444;7.196;2022-07-29T08:58:44;4.33;;;2.70;;
1048;SDS011;513;51.444;7.196;2022-07-29T09:01:13;8.57;;;2.77;;
1048;SDS011;513;51.444;7.196;2022-07-29T09:03:44;8.73;;;2.73;;
1048;SDS011;513;51.444;7.196;2022-07-29T09:06:12;4.63;;;2.47;;
1048;SDS011;513;51.444;7.196;2022-07-29T09:08:39;5.53;;;2.47;;
1048;SDS011;513;51.444;7.196;2022-07-29T09:11:07;4.77;;;2.30;;
1048;SDS011;513;51.444;7.196;2022-07-29T09:13:34;7.87;;;2.37;;
1048;SDS011;513;51.444;7.196;2022-07-29T09:16:01;8.07;;;2.50;;
1048;SDS011;513;51.444;7.196;2022-07-29T09:18:36;6.50;;;2.60;;
1048;SDS011;513;51.444;7.196;2022-07-29T09:21:04;4.97;;;2.70;;
1048;SDS011;513;51.444;7.196;2022-07-29T09:24:02;7.43;;;3.00;;
1048;SDS011;513;51.444;7.196;2022-07-29T09:26:32;5.93;;;2.70;;
1048;SDS011;513;51.444;7.196;2022-07-29T09:28:59;8.00;;;2.87;;
1048;SDS011;513;51.444;7.196;2022-07-29T09:31:34;6.83;;;2.80;;
1048;SDS011;513;51.444;7.196;2022-07-29T09:34:03;8.67;;;3.00;;
1048;SDS011;513;51.444;7.196;2022-07-29T09:36:32;8.23;;;2.90;;
1048;SDS011;513;51.444;7.196;2022-07-29T09:39:05;10.17;;;3.30;;
1048;SDS011;513;51.444;7.196;2022-07-29T09:41:43;3.97;;;3.17;;
1048;SDS011;513;51.444;7.196;2022-07-29T09:44:14;6.10;;;3.43;;
1048;SDS011;513;51.444;7.196;2022-07-29T09:46:51;7.40;;;3.23;;
1048;SDS011;513;51.444;7.196;2022-07-29T09:49:23;10.47;;;3.30;;
1048;SDS011;513;51.444;7.196;2022-07-29T09:52:00;10.10;;;3.80;;
1048;SDS011;513;51.444;7.196;2022-07-29T09:54:29;9.87;;;3.53;;
1048;SDS011;513;51.444;7.196;2022-07-29T09:57:01;7.10;;;3.57;;
1048;SDS011;513;51.444;7.196;2022-07-29T09:59:29;7.80;;;3.80;;
1048;SDS011;513;51.444;7.196;2022-07-29T10:01:55;7.13;;;3.10;;
1048;SDS011;513;51.444;7.196;2022-07-29T10:04:24;6.27;;;4.00;;
1048;SDS011;513;51.444;7.196;2022-07-29T10:07:03;10.70;;;4.63;;
1048;SDS011;513;51.444;7.196;2022-07-29T10:09:31;8.53;;;4.77;;
1048;SDS011;513;51.444;7.196;2022-07-29T10:12:08;7.80;;;4.20;;
1048;SDS011;513;51.444;7.196;2022-07-29T10:14:36;7.20;;;4.30;;
1048;SDS011;513;51.444;7.196;2022-07-29T10:17:04;6.33;;;3.97;;
1048;SDS011;513;51.444;7.196;2022-07-29T10:19:33;9.73;;;3.80;;
1048;SDS011;513;51.444;7.196;2022-07-29T10:22:02;6.73;;;3.57;;
1048;SDS011;513;51.444;7.196;2022-07-29T10:24:32;7.90;;;3.10;;
1048;SDS011;513;51.444;7.196;2022-07-29T10:27:00;4.90;;;3.20;;
1048;SDS011;513;51.444;7.196;2022-07-29T10:29:30;8.00;;;3.50;;
1048;SDS011;513;51.444;7.196;2022-07-29T10:32:00;6.53;;;3.73;;
1048;SDS011;513;51.444;7.196;2022-07-29T10:34:49;7.73;;;3.63;;
1048;SDS011;513;51.444;7.196;2022-07-29T10:37:26;5.63;;;3.37;;
1048;SDS011;513;51.444;7.196;2022-07-29T10:40:05;5.60;;;3.60;;
1048;SDS011;513;51.444;7.196;2022-07-29T10:42:59;6.13;;;3.63;;
1048;SDS011;513;51.444;7.196;2022-07-29T10:45:40;8.30;;;4.00;;
1048;SDS011;513;51.444;7.196;2022-07-29T10:48:06;6.73;;;3.90;;
1048;SDS011;513;51.444;7.196;2022-07-29T10:53:21;6.97;;;3.60;;
1048;SDS011;513;51.444;7.196;2022-07-29T10:55:49;10.67;;;3.80;;
1048;SDS011;513;51.444;7.196;2022-07-29T10:58:18;6.13;;;4.33;;
1048;SDS011;513;51.444;7.196;2022-07-29T11:00:46;7.30;;;4.20;;
1048;SDS011;513;51.444;7.196;2022-07-29T11:06:12;8.53;;;4.00;;
1048;SDS011;513;51.444;7.196;2022-07-29T11:08:39;11.53;;;4.50;;
1048;SDS011;513;51.444;7.196;2022-07-29T11:13:58;7.23;;;3.87;;
1048;SDS011;513;51.444;7.196;2022-07-29T11:16:24;10.13;;;4.93;;
1048;SDS011;513;51.444;7.196;2022-07-29T11:21:48;8.93;;;4.23;;
1048;SDS011;513;51.444;7.196;2022-07-29T11:24:17;7.23;;;4.20;;
1048;SDS011;513;51.444;7.196;2022-07-29T11:29:33;7.80;;;4.47;;
1048;SDS011;513;51.444;7.196;2022-07-29T11:32:08;11.43;;;4.80;;
1048;SDS011;513;51.444;7.196;2022-07-29T11:34:35;9.77;;;4.30;;
1048;SDS011;513;51.444;7.196;2022-07-29T11:42:38;7.10;;;4.27;;
1048;SDS011;513;51.444;7.196;2022-07-29T11:45:07;7.67;;;4.60;;
1048;SDS011;513;51.444;7.196;2022-07-29T11:47:35;8.20;;;4.60;;
1048;SDS011;513;51.444;7.196;2022-07-29T11:50:04;8.07;;;4.40;;
1048;SDS011;513;51.444;7.196;2022-07-29T11:52:34;10.67;;;4.27;;
1048;SDS011;513;51.444;7.196;2022-07-29T11:55:08;11.07;;;4.17;;
1048;SDS011;513;51.444;7.196;2022-07-29T11:57:37;6.87;;;4.03;;
1048;SDS011;513;51.444;7.196;2022-07-29T12:00:05;6.90;;;3.97;;
1048;SDS011;513;51.444;7.196;2022-07-29T12:02:40;7.60;;;3.93;;
1048;SDS011;513;51.444;7.196;2022-07-29T12:05:08;7.17;;;4.93;;
1048;SDS011;513;51.444;7.196;2022-07-29T12:07:37;6.87;;;3.90;;
1048;SDS011;513;51.444;7.196;2022-07-29T12:10:06;8.00;;;3.87;;
1048;SDS011;513;51.444;7.196;2022-07-29T12:12:34;6.97;;;4.10;;
1048;SDS011;513;51.444;7.196;2022-07-29T12:15:11;8.50;;;4.23;;
1048;SDS011;513;51.444;7.196;2022-07-29T12:17:38;7.53;;;4.07;;
1048;SDS011;513;51.444;7.196;2022-07-29T12:20:06;9.87;;;4.47;;
1048;SDS011;513;51.444;7.196;2022-07-29T12:22:33;12.97;;;4.47;;
1048;SDS011;513;51.444;7.196;2022-07-29T12:25:03;4.33;;;3.07;;
1048;SDS011;513;51.444;7.196;2022-07-29T12:27:32;5.47;;;3.40;;
1048;SDS011;513;51.444;7.196;2022-07-29T12:29:59;5.33;;;2.93;;
1048;SDS011;513;51.444;7.196;2022-07-29T12:32:30;5.23;;;3.67;;
1048;SDS011;513;51.444;7.196;2022-07-29T12:34:58;11.00;;;4.27;;
1048;SDS011;513;51.444;7.196;2022-07-29T12:37:25;7.20;;;3.40;;
1048;SDS011;513;51.444;7.196;2022-07-29T12:39:52;4.47;;;2.50;;
1048;SDS011;513;51.444;7.196;2022-07-29T12:42:20;7.23;;;2.80;;
1048;SDS011;513;51.444;7.196;2022-07-29T12:44:51;6.00;;;2.67;;
1048;SDS011;513;51.444;7.196;2022-07-29T12:47:22;6.20;;;3.00;;
1048;SDS011;513;51.444;7.196;2022-07-29T12:49:50;6.80;;;3.00;;
1048;SDS011;513;51.444;7.196;2022-07-29T12:52:33;6.33;;;3.30;;
1048;SDS011;513;51.444;7.196;2022-07-29T12:55:00;4.03;;;2.70;;
1048;SDS011;513;51.444;7.196;2022-07-29T12:57:28;7.67;;;3.60;;
1048;SDS011;513;51.444;7.196;2022-07-29T13:00:06;6.97;;;3.23;;
1048;SDS011;513;51.444;7.196;2022-07-29T13:02:35;6.13;;;3.13;;
1048;SDS011;513;51.444;7.196;2022-07-29T13:05:03;5.63;;;2.87;;
1048;SDS011;513;51.444;7.196;2022-07-29T13:07:32;5.03;;;3.23;;
1048;SDS011;513;51.444;7.196;2022-07-29T13:10:10;7.07;;;3.47;;
1048;SDS011;513;51.444;7.196;2022-07-29T13:12:40;6.00;;;3.30;;
1048;SDS011;513;51.444;7.196;2022-07-29T13:15:28;8.73;;;2.87;;
1048;SDS011;513;51.444;7.196;2022-07-29T13:17:55;4.93;;;3.50;;
1048;SDS011;513;51.444;7.196;2022-07-29T13:20:23;6.83;;;3.27;;
1048;SDS011;513;51.444;7.196;2022-07-29T13:22:52;9.53;;;3.23;;
1048;SDS011;513;51.444;7.196;2022-07-29T13:25:23;9.20;;;3.60;;
1048;SDS011;513;51.444;7.196;2022-07-29T13:27:52;4.67;;;3.57;;
1048;SDS011;513;51.444;7.196;2022-07-29T13:30:20;5.47;;;3.63;;
1048;SDS011;513;51.444;7.196;2022-07-29T13:32:47;6.97;;;3.60;;
1048;SDS011;513;51.444;7.196;2022-07-29T13:35:14;10.20;;;4.30;;
1048;SDS011;513;51.444;7.196;2022-07-29T13:37:41;5.90;;;3.70;;
1048;SDS011;513;51.444;7.196;2022-07-29T13:40:09;9.90;;;4.17;;
1048;SDS011;513;51.444;7.196;2022-07-29T13:42:37;8.47;;;3.80;;
1048;SDS011;513;51.444;7.196;2022-07-29T13:45:06;9.67;;;5.23;;
1048;SDS011;513;51.444;7.196;2022-07-29T13:47:34;5.83;;;4.00;;
1048;SDS011;513;51.444;7.196;2022-07-29T13:50:01;10.20;;;3.50;;
1048;SDS011;513;51.444;7.196;2022-07-29T13:52:28;5.67;;;3.20;;
1048;SDS011;513;51.444;7.196;2022-07-29T13:54:55;7.20;;;3.50;;
1048;SDS011;513;51.444;7.196;2022-07-29T13:57:22;6.73;;;3.67;;
1048;SDS011;513;51.444;7.196;2022-07-29T13:59:49;5.03;;;3.27;;
1048;SDS011;513;51.444;7.196;2022-07-29T14:02:17;6.23;;;3.30;;
1048;SDS011;513;51.444;7.196;2022-07-29T14:04:44;5.17;;;3.20;;
1048;SDS011;513;51.444;7.196;2022-07-29T14:07:10;4.20;;;3.27;;
1048;SDS011;513;51.444;7.196;2022-07-29T14:09:37;5.43;;;3.70;;
1048;SDS011;513;51.444;7.196;2022-07-29T14:12:04;6.00;;;3.07;;
1048;SDS011;513;51.444;7.196;2022-07-29T14:14:32;7.30;;;3.30;;
1048;SDS011;513;51.444;7.196;2022-07-29T14:17:00;6.73;;;3.60;;
1048;SDS011;513;51.444;7.196;2022-07-29T14:19:29;7.40;;;3.20;;
1048;SDS011;513;51.444;7.196;2022-07-29T14:21:56;6.03;;;3.33;;
1048;SDS011;513;51.444;7.196;2022-07-29T14:24:23;5.70;;;3.00;;
1048;SDS011;513;51.444;7.196;2022-07-29T14:26:50;7.73;;;2.83;;
1048;SDS011;513;51.444;7.196;2022-07-29T14:29:16;7.40;;;2.97;;
1048;SDS011;513;51.444;7.196;2022-07-29T14:31:43;5.40;;;3.00;;
1048;SDS011;513;51.444;7.196;2022-07-29T14:34:10;7.83;;;4.37;;
1048;SDS011;513;51.444;7.196;2022-07-29T14:36:38;6.40;;;3.27;;
1048;SDS011;513;51.444;7.196;2022-07-29T14:39:05;6.13;;;3.23;;
1048;SDS011;513;51.444;7.196;2022-07-29T14:41:32;6.13;;;3.03;;
1048;SDS011;513;51.444;7.196;2022-07-29T14:43:59;3.97;;;3.00;;
1048;SDS011;513;51.444;7.196;2022-07-29T14:46:26;4.37;;;2.47;;
1048;SDS011;513;51.444;7.196;2022-07-29T14:48:53;6.50;;;2.50;;
1048;SDS011;513;51.444;7.196;2022-07-29T14:51:20;5.77;;;2.90;;
1048;SDS011;513;51.444;7.196;2022-07-29T14:53:48;4.77;;;2.90;;
1048;SDS011;513;51.444;7.196;2022-07-29T14:56:15;9.93;;;6.13;;
1048;SDS011;513;51.444;7.196;2022-07-29T14:58:42;4.97;;;2.80;;
1048;SDS011;513;51.444;7.196;2022-07-29T15:01:08;8.07;;;2.90;;
1048;SDS011;513;51.444;7.196;2022-07-29T15:03:35;8.03;;;3.40;;
1048;SDS011;513;51.444;7.196;2022-07-29T15:06:02;10.57;;;3.00;;
1048;SDS011;513;51.444;7.196;2022-07-29T15:08:29;4.17;;;2.80;;
1048;SDS011;513;51.444;7.196;2022-07-29T15:10:57;4.90;;;2.90;;
1048;SDS011;513;51.444;7.196;2022-07-29T15:13:25;7.77;;;3.10;;
1048;SDS011;513;51.444;7.196;2022-07-29T15:15:52;3.60;;;2.47;;
1048;SDS011;513;51.444;7.196;2022-07-29T15:18:19;4.00;;;2.50;;
1048;SDS011;513;51.444;7.196;2022-07-29T15:20:45;8.30;;;2.87;;
1048;SDS011;513;51.444;7.196;2022-07-29T15:23:12;4.27;;;2.70;;
1048;SDS011;513;51.444;7.196;2022-07-29T15:25:39;9.37;;;2.87;;
1048;SDS011;513;51.444;7.196;2022-07-29T15:28:07;6.00;;;2.83;;
1048;SDS011;513;51.444;7.196;2022-07-29T15:30:34;6.27;;;2.70;;
1048;SDS011;513;51.444;7.196;2022-07-29T15:33:05;5.07;;;2.37;;
1048;SDS011;513;51.444;7.196;2022-07-29T15:35:33;6.07;;;2.70;;
1048;SDS011;513;51.444;7.196;2022-07-29T15:38:00;4.97;;;2.60;;
1048;SDS011;513;51.444;7.196;2022-07-29T15:40:27;5.63;;;3.00;;
1048;SDS011;513;51.444;7.196;2022-07-29T15:42:53;4.90;;;3.10;;
1048;SDS011;513;51.444;7.196;2022-07-29T15:45:21;5.13;;;3.30;;
1048;SDS011;513;51.444;7.196;2022-07-29T15:47:48;9.97;;;4.40;;
1048;SDS011;513;51.444;7.196;2022-07-29T15:50:15;6.10;;;3.57;;
1048;SDS011;513;51.444;7.196;2022-07-29T15:52:42;9.87;;;3.67;;
1048;SDS011;513;51.444;7.196;2022-07-29T15:55:09;6.30;;;3.57;;
1048;SDS011;513;51.444;7.196;2022-07-29T15:57:36;6.33;;;3.70;;
1048;SDS011;513;51.444;7.196;2022-07-29T16:00:05;5.90;;;3.17;;